createdAt,value
2022-08-11T00:02:50.336Z,16.90
2022-08-11T00:05:20.025Z,16.70
2022-08-11T00:07:48.520Z,16.80
2022-08-11T00:10:18.153Z,16.80
2022-08-11T00:12:58.415Z,16.70
2022-08-11T00:15:26.824Z,16.70
2022-08-11T00:18:01.157Z,16.70
2022-08-11T00:20:33.369Z,16.70
2022-08-11T00:23:07.673Z,16.50
2022-08-11T00:26:01.216Z,16.40
2022-08-11T00:28:35.123Z,16.40
2022-08-11T00:31:08.361Z,16.30
2022-08-11T00:33:44.700Z,16.30
2022-08-11T00:36:23.389Z,16.20
2022-08-11T00:38:53.749Z,16.20
2022-08-11T00:41:29.453Z,16.10
2022-08-11T00:44:37.907Z,16.00
2022-08-11T00:47:33.082Z,16.00
2022-08-11T00:50:18.493Z,16.00
2022-08-11T00:53:10.178Z,16.10
2022-08-11T00:55:43.054Z,16.00
2022-08-11T00:58:29.432Z,15.90
2022-08-11T01:01:18.146Z,15.70
2022-08-11T01:03:51.381Z,15.60
2022-08-11T01:06:36.738Z,15.60
2022-08-11T01:09:46.641Z,15.60
2022-08-11T01:12:32.586Z,15.50
2022-08-11T01:14:59.371Z,15.40
2022-08-11T01:17:52.840Z,15.40
2022-08-11T01:21:01.142Z,15.40
2022-08-11T01:24:07.461Z,15.40
2022-08-11T01:26:55.113Z,15.40
2022-08-11T01:29:52.638Z,15.40
2022-08-11T01:33:04.400Z,15.30
2022-08-11T01:35:37.423Z,15.30
2022-08-11T01:38:28.241Z,15.20
2022-08-11T01:41:18.970Z,15.00
2022-08-11T01:44:36.317Z,15.00
2022-08-11T01:47:38.265Z,14.90
2022-08-11T01:50:31.255Z,14.80
2022-08-11T01:53:21.470Z,14.80
2022-08-11T01:55:59.896Z,14.70
2022-08-11T01:58:46.712Z,14.60
2022-08-11T02:01:36.337Z,14.70
2022-08-11T02:04:12.197Z,14.70
2022-08-11T02:07:02.643Z,14.60
2022-08-11T02:09:49.238Z,14.60
2022-08-11T02:12:32.908Z,14.60
2022-08-11T02:15:24.119Z,14.50
2022-08-11T02:18:13.518Z,14.50
2022-08-11T02:21:16.274Z,14.50
2022-08-11T02:24:10.802Z,14.50
2022-08-11T02:26:56.645Z,14.40
2022-08-11T02:29:45.840Z,14.50
2022-08-11T02:32:42.925Z,14.40
2022-08-11T02:35:35.545Z,14.30
2022-08-11T02:38:43.459Z,14.20
2022-08-11T02:41:36.365Z,14.10
2022-08-11T02:44:09.069Z,14.10
2022-08-11T02:46:50.853Z,14.10
2022-08-11T02:50:06.396Z,14.00
2022-08-11T02:53:06.389Z,14.00
2022-08-11T02:55:57.015Z,13.90
2022-08-11T02:58:39.180Z,13.80
2022-08-11T03:01:16.991Z,13.90
2022-08-11T03:04:37.702Z,13.80
2022-08-11T03:07:28.968Z,13.80
2022-08-11T03:10:25.438Z,13.90
2022-08-11T03:13:41.160Z,13.70
2022-08-11T03:16:45.708Z,13.60
2022-08-11T03:19:18.451Z,13.60
2022-08-11T03:22:10.891Z,13.70
2022-08-11T03:24:48.750Z,13.70
2022-08-11T03:27:21.547Z,13.70
2022-08-11T03:30:14.587Z,13.60
2022-08-11T03:33:09.390Z,13.50
2022-08-11T03:35:54.429Z,13.40
2022-08-11T03:38:30.607Z,13.40
2022-08-11T03:42:03.423Z,13.50
2022-08-11T03:44:37.315Z,13.60
2022-08-11T03:47:24.197Z,13.50
2022-08-11T03:50:20.044Z,13.30
2022-08-11T03:52:53.925Z,13.30
2022-08-11T03:55:21.878Z,13.20
2022-08-11T03:58:15.983Z,13.10
2022-08-11T04:00:57.973Z,13.00
2022-08-11T04:03:31.077Z,13.00
2022-08-11T04:06:09.184Z,13.00
2022-08-11T04:08:55.583Z,13.00
2022-08-11T04:11:40.246Z,13.10
2022-08-11T04:14:44.015Z,13.00
2022-08-11T04:17:28.392Z,13.00
2022-08-11T04:20:10.417Z,13.10
2022-08-11T04:22:55.175Z,13.10
2022-08-11T04:25:30.061Z,13.00
2022-08-11T04:28:50.194Z,13.00
2022-08-11T04:31:50.517Z,13.00
2022-08-11T04:34:33.464Z,12.90
2022-08-11T04:37:34.846Z,12.90
2022-08-11T04:40:27.966Z,12.90
2022-08-11T04:43:22.374Z,12.90
2022-08-11T04:46:26.414Z,12.80
2022-08-11T04:49:36.634Z,12.80
2022-08-11T04:52:59.060Z,12.80
2022-08-11T04:56:18.550Z,13.00
2022-08-11T04:59:19.529Z,13.00
2022-08-11T05:02:16.694Z,13.00
2022-08-11T05:05:22.612Z,13.10
2022-08-11T05:08:26.918Z,13.10
2022-08-11T05:11:23.617Z,13.30
2022-08-11T05:14:23.879Z,13.30
2022-08-11T05:17:10.551Z,13.30
2022-08-11T05:19:56.608Z,13.40
2022-08-11T05:22:48.113Z,13.40
2022-08-11T05:26:43.827Z,13.40
2022-08-11T05:29:19.262Z,13.50
2022-08-11T05:32:14.637Z,13.50
2022-08-11T05:34:54.117Z,13.60
2022-08-11T05:37:29.847Z,13.70
2022-08-11T05:40:24.350Z,13.70
2022-08-11T05:43:15.544Z,13.80
2022-08-11T05:46:04.650Z,13.80
2022-08-11T05:48:55.271Z,13.90
2022-08-11T05:51:55.343Z,13.90
2022-08-11T05:54:46.041Z,13.90
2022-08-11T05:57:45.487Z,14.00
2022-08-11T06:00:10.266Z,14.10
2022-08-11T06:03:04.016Z,14.20
2022-08-11T06:05:38.485Z,14.30
2022-08-11T06:08:13.365Z,14.40
2022-08-11T06:10:43.720Z,14.80
2022-08-11T06:13:14.541Z,15.10
2022-08-11T06:15:49.113Z,15.50
2022-08-11T06:18:16.777Z,15.70
2022-08-11T06:20:58.074Z,15.90
2022-08-11T06:23:31.415Z,16.00
2022-08-11T06:26:00.216Z,16.10
2022-08-11T06:28:37.085Z,16.30
2022-08-11T06:31:24.240Z,16.40
2022-08-11T06:33:50.935Z,16.60
2022-08-11T06:36:44.273Z,16.80
2022-08-11T06:39:44.962Z,16.90
2022-08-11T06:42:23.385Z,17.00
2022-08-11T06:45:08.319Z,17.10
2022-08-11T06:47:35.739Z,17.30
2022-08-11T06:50:24.841Z,17.40
2022-08-11T06:52:53.787Z,17.50
2022-08-11T06:55:56.858Z,17.60
2022-08-11T06:58:49.791Z,17.70
2022-08-11T07:01:23.349Z,17.80
2022-08-11T07:04:04.376Z,17.90
2022-08-11T07:06:39.893Z,18.00
2022-08-11T07:09:42.149Z,18.20
2022-08-11T07:12:38.903Z,18.30
2022-08-11T07:16:12.895Z,18.30
2022-08-11T07:18:42.845Z,18.40
2022-08-11T07:22:01.247Z,18.40
2022-08-11T07:25:01.613Z,18.60
2022-08-11T07:27:57.453Z,18.70
2022-08-11T07:30:25.730Z,18.80
2022-08-11T07:32:54.793Z,18.90
2022-08-11T07:35:30.347Z,18.90
2022-08-11T07:38:01.670Z,19.00
2022-08-11T07:40:30.704Z,19.20
2022-08-11T07:42:59.128Z,19.10
2022-08-11T07:45:46.052Z,19.30
2022-08-11T07:48:33.487Z,19.40
2022-08-11T07:51:20.880Z,19.50
2022-08-11T07:53:58.731Z,19.60
2022-08-11T07:56:54.474Z,19.70
2022-08-11T07:59:58.608Z,19.80
2022-08-11T08:02:46.164Z,19.90
2022-08-11T08:05:33.210Z,20.10
2022-08-11T08:08:18.793Z,20.10
2022-08-11T08:11:03.940Z,20.20
2022-08-11T08:13:52.261Z,20.40
2022-08-11T08:16:39.068Z,20.40
2022-08-11T08:19:06.252Z,20.60
2022-08-11T08:21:33.390Z,20.70
2022-08-11T08:24:00.950Z,20.70
2022-08-11T08:27:03.515Z,20.80
2022-08-11T08:29:53.720Z,20.90
2022-08-11T08:32:21.746Z,21.00
2022-08-11T08:34:52.746Z,21.20
2022-08-11T08:37:47.073Z,21.30
2022-08-11T08:40:09.562Z,21.30
2022-08-11T08:42:45.073Z,21.50
2022-08-11T08:45:16.299Z,21.60
2022-08-11T08:47:51.137Z,21.70
2022-08-11T08:50:27.876Z,21.80
2022-08-11T08:53:05.788Z,21.90
2022-08-11T08:55:33.703Z,22.00
2022-08-11T08:58:01.954Z,22.20
2022-08-11T09:00:40.803Z,22.30
2022-08-11T09:03:36.022Z,22.40
2022-08-11T09:05:56.298Z,22.40
2022-08-11T09:08:24.120Z,22.50
2022-08-11T09:11:13.761Z,22.70
2022-08-11T09:13:44.254Z,22.80
2022-08-11T09:16:12.083Z,22.90
2022-08-11T09:18:39.954Z,23.00
2022-08-11T09:21:07.542Z,23.10
2022-08-11T09:24:19.332Z,23.20
2022-08-11T09:27:00.214Z,23.30
2022-08-11T09:29:29.101Z,23.50
2022-08-11T09:31:57.427Z,23.70
2022-08-11T09:34:26.388Z,23.80
2022-08-11T09:37:53.301Z,24.00
2022-08-11T09:40:28.239Z,24.20
2022-08-11T09:43:20.761Z,24.30
2022-08-11T09:45:52.142Z,24.40
2022-08-11T09:48:21.842Z,24.50
2022-08-11T09:50:58.718Z,24.60
2022-08-11T09:53:37.305Z,24.80
2022-08-11T09:56:33.094Z,25.00
2022-08-11T09:59:01.189Z,25.10
2022-08-11T10:01:34.379Z,25.10
2022-08-11T10:04:08.021Z,25.30
2022-08-11T10:06:56.312Z,25.40
2022-08-11T10:09:25.100Z,25.60
2022-08-11T10:11:58.795Z,25.70
2022-08-11T10:14:45.913Z,25.80
2022-08-11T10:17:15.110Z,25.90
2022-08-11T10:19:43.495Z,25.90
2022-08-11T10:22:32.142Z,25.90
2022-08-11T10:25:20.059Z,26.00
2022-08-11T10:28:30.677Z,26.20
2022-08-11T10:31:05.850Z,26.40
2022-08-11T10:33:59.028Z,26.50
2022-08-11T10:36:48.236Z,26.40
2022-08-11T10:39:18.471Z,26.70
2022-08-11T10:42:09.615Z,26.90
2022-08-11T10:44:46.198Z,27.00
2022-08-11T10:47:33.402Z,27.00
2022-08-11T10:50:23.515Z,27.00
2022-08-11T10:53:10.176Z,27.00
2022-08-11T10:55:58.571Z,27.10
2022-08-11T10:58:44.778Z,27.30
2022-08-11T11:01:12.965Z,27.40
2022-08-11T11:03:40.796Z,27.50
2022-08-11T11:06:29.489Z,27.50
2022-08-11T11:09:08.521Z,27.60
2022-08-11T11:12:01.992Z,27.50
2022-08-11T11:14:56.625Z,27.40
2022-08-11T11:17:56.085Z,27.40
2022-08-11T11:20:54.638Z,27.60
2022-08-11T11:23:36.775Z,27.80
2022-08-11T11:26:40.261Z,28.10
2022-08-11T11:29:27.026Z,28.10
2022-08-11T11:31:59.691Z,28.10
2022-08-11T11:34:32.247Z,27.90
2022-08-11T11:37:01.166Z,27.90
2022-08-11T11:39:31.265Z,27.70
2022-08-11T11:42:04.378Z,27.90
2022-08-11T11:44:32.940Z,27.90
2022-08-11T11:47:01.810Z,27.90
2022-08-11T11:49:30.256Z,28.00
2022-08-11T11:51:59.335Z,28.20
2022-08-11T11:54:33.731Z,28.40
2022-08-11T11:57:21.640Z,28.30
2022-08-11T12:00:11.330Z,28.30
2022-08-11T12:02:40.720Z,28.40
2022-08-11T12:05:10.197Z,28.50
2022-08-11T12:08:10.470Z,28.60
2022-08-11T12:10:47.843Z,28.80
2022-08-11T12:13:35.622Z,28.70
2022-08-11T12:16:34.931Z,28.60
2022-08-11T12:19:03.803Z,28.60
2022-08-11T12:21:31.102Z,28.60
2022-08-11T12:24:19.027Z,28.80
2022-08-11T12:27:01.403Z,28.80
2022-08-11T12:29:41.259Z,28.80
2022-08-11T12:32:10.832Z,28.90
2022-08-11T12:34:37.550Z,28.80
2022-08-11T12:37:06.970Z,28.70
2022-08-11T12:40:10.742Z,28.70
2022-08-11T12:43:03.992Z,28.80
2022-08-11T12:45:38.301Z,28.80
2022-08-11T12:49:01.039Z,28.80
2022-08-11T12:52:12.109Z,28.70
2022-08-11T12:54:52.063Z,28.70
2022-08-11T12:57:46.236Z,28.80
2022-08-11T13:00:32.883Z,28.70
2022-08-11T13:03:19.583Z,28.80
2022-08-11T13:05:49.358Z,28.70
2022-08-11T13:08:17.376Z,28.70
2022-08-11T13:11:05.476Z,28.70
2022-08-11T13:13:54.661Z,28.80
2022-08-11T13:16:22.475Z,28.80
2022-08-11T13:18:50.826Z,28.80
2022-08-11T13:21:21.529Z,28.80
2022-08-11T13:24:01.294Z,28.80
2022-08-11T13:26:47.805Z,28.80
2022-08-11T13:29:25.628Z,28.80
2022-08-11T13:32:00.576Z,28.90
2022-08-11T13:34:31.394Z,28.90
2022-08-11T13:37:01.087Z,28.80
2022-08-11T13:39:31.025Z,28.80
2022-08-11T13:42:00.396Z,28.90
2022-08-11T13:44:36.065Z,28.80
2022-08-11T13:47:06.246Z,28.80
2022-08-11T13:49:39.759Z,28.80
2022-08-11T13:52:12.927Z,28.90
2022-08-11T13:54:41.178Z,29.00
2022-08-11T13:57:13.770Z,29.00
2022-08-11T14:00:09.704Z,28.90
2022-08-11T14:02:45.670Z,28.90
2022-08-11T14:05:15.753Z,28.70
2022-08-11T14:07:52.037Z,28.70
2022-08-11T14:10:25.598Z,28.70
2022-08-11T14:13:22.513Z,28.70
2022-08-11T14:15:52.252Z,28.70
2022-08-11T14:18:22.534Z,28.60
2022-08-11T14:21:14.509Z,28.60
2022-08-11T14:23:46.275Z,28.70
2022-08-11T14:26:28.535Z,28.70
2022-08-11T14:29:08.273Z,28.70
2022-08-11T14:31:38.904Z,28.80
2022-08-11T14:34:08.524Z,28.80
2022-08-11T14:36:42.080Z,28.80
2022-08-11T14:39:12.951Z,28.80
2022-08-11T14:42:11.065Z,28.80
2022-08-11T14:45:04.168Z,28.80
2022-08-11T14:47:36.461Z,28.70
2022-08-11T14:50:10.942Z,28.60
2022-08-11T14:52:44.025Z,28.60
2022-08-11T14:55:30.592Z,28.60
2022-08-11T14:57:58.362Z,28.50
2022-08-11T15:00:25.907Z,28.60
2022-08-11T15:03:10.467Z,28.60
2022-08-11T15:06:02.708Z,28.60
2022-08-11T15:08:53.372Z,28.60
2022-08-11T15:11:47.612Z,28.50
2022-08-11T15:14:35.349Z,28.40
2022-08-11T15:17:09.182Z,28.40
2022-08-11T15:19:59.028Z,28.40
2022-08-11T15:22:44.603Z,28.40
2022-08-11T15:25:11.801Z,28.30
2022-08-11T15:27:58.457Z,28.30
2022-08-11T15:30:45.871Z,28.30
2022-08-11T15:33:35.647Z,28.30
2022-08-11T15:36:26.061Z,28.30
2022-08-11T15:39:03.543Z,28.30
2022-08-11T15:41:59.237Z,28.20
2022-08-11T15:45:05.729Z,28.30
2022-08-11T15:47:48.677Z,28.30
2022-08-11T15:50:20.127Z,28.30
2022-08-11T15:53:16.383Z,28.30
2022-08-11T15:55:45.166Z,28.20
2022-08-11T15:58:32.238Z,28.20
2022-08-11T16:01:19.611Z,28.10
2022-08-11T16:04:13.870Z,28.20
2022-08-11T16:06:58.437Z,28.10
2022-08-11T16:09:33.811Z,28.10
2022-08-11T16:12:22.204Z,28.00
2022-08-11T16:15:14.191Z,28.00
2022-08-11T16:18:05.016Z,28.00
2022-08-11T16:20:33.558Z,28.00
2022-08-11T16:23:05.460Z,28.00
2022-08-11T16:27:06.118Z,28.00
2022-08-11T16:28:24.982Z,27.90
2022-08-11T16:30:53.657Z,27.90
2022-08-11T16:33:49.087Z,27.90
2022-08-11T16:36:29.266Z,27.90
2022-08-11T16:38:57.773Z,27.80
2022-08-11T16:41:47.214Z,27.80
2022-08-11T16:44:37.573Z,27.80
2022-08-11T16:47:12.965Z,27.80
2022-08-11T16:49:52.135Z,27.80
2022-08-11T16:52:20.569Z,27.70
2022-08-11T16:54:47.650Z,27.70
2022-08-11T16:57:44.534Z,27.70
2022-08-11T17:00:15.338Z,27.70
2022-08-11T17:03:10.531Z,27.60
2022-08-11T17:06:03.150Z,27.60
2022-08-11T17:08:57.089Z,27.60
2022-08-11T17:11:46.132Z,27.50
2022-08-11T17:14:38.322Z,27.50
2022-08-11T17:17:13.246Z,27.50
2022-08-11T17:20:40.768Z,27.40
2022-08-11T17:22:56.224Z,27.40
2022-08-11T17:25:28.206Z,27.40
2022-08-11T17:27:56.707Z,27.30
2022-08-11T17:30:45.467Z,27.30
2022-08-11T17:33:32.256Z,27.20
2022-08-11T17:36:00.584Z,27.20
2022-08-11T17:38:28.547Z,27.20
2022-08-11T17:41:23.453Z,27.10
2022-08-11T17:44:11.078Z,27.00
2022-08-11T17:47:00.120Z,27.00
2022-08-11T17:49:37.496Z,27.00
2022-08-11T17:52:25.400Z,26.90
2022-08-11T17:55:13.956Z,26.80
2022-08-11T17:58:01.144Z,26.80
2022-08-11T18:00:28.162Z,26.70
2022-08-11T18:03:15.434Z,26.70
2022-08-11T18:05:44.486Z,26.70
2022-08-11T18:08:32.914Z,26.70
2022-08-11T18:12:06.208Z,26.60
2022-08-11T18:14:27.361Z,26.60
2022-08-11T18:17:12.628Z,26.60
2022-08-11T18:19:58.295Z,26.50
2022-08-11T18:22:54.785Z,26.40
2022-08-11T18:25:46.109Z,26.40
2022-08-11T18:28:34.749Z,26.30
2022-08-11T18:31:23.460Z,26.20
2022-08-11T18:34:13.138Z,26.20
2022-08-11T18:37:24.784Z,26.00
2022-08-11T18:40:18.755Z,25.80
2022-08-11T18:43:06.786Z,25.60
2022-08-11T18:46:06.138Z,25.50
2022-08-11T18:48:55.489Z,25.30
2022-08-11T18:51:43.037Z,25.10
2022-08-11T18:54:30.775Z,24.90
2022-08-11T18:57:20.773Z,24.80
2022-08-11T19:00:08.562Z,24.70
2022-08-11T19:02:57.378Z,24.50
2022-08-11T19:06:35.220Z,24.40
2022-08-11T19:08:56.067Z,24.30
2022-08-11T19:11:43.709Z,24.10
2022-08-11T19:14:31.955Z,24.10
2022-08-11T19:17:44.052Z,23.90
2022-08-11T19:20:29.612Z,23.70
2022-08-11T19:23:16.070Z,23.60
2022-08-11T19:26:06.237Z,23.40
2022-08-11T19:28:53.555Z,23.40
2022-08-11T19:31:44.467Z,23.30
2022-08-11T19:34:34.583Z,23.20
2022-08-11T19:37:24.806Z,23.20
2022-08-11T19:40:13.579Z,23.10
2022-08-11T19:43:01.544Z,23.00
2022-08-11T19:45:52.344Z,22.80
2022-08-11T19:48:40.710Z,22.70
2022-08-11T19:51:28.712Z,22.70
2022-08-11T19:54:15.022Z,22.60
2022-08-11T19:57:01.781Z,22.60
2022-08-11T19:59:48.218Z,22.40
2022-08-11T20:02:34.021Z,22.30
2022-08-11T20:05:19.926Z,22.20
2022-08-11T20:08:06.804Z,22.00
2022-08-11T20:10:54.484Z,22.00
2022-08-11T20:13:43.408Z,21.90
2022-08-11T20:16:32.693Z,21.90
2022-08-11T20:19:25.975Z,21.80
2022-08-11T20:22:27.028Z,21.60
2022-08-11T20:25:13.836Z,21.40
2022-08-11T20:28:01.925Z,21.40
2022-08-11T20:30:51.778Z,21.30
2022-08-11T20:33:38.754Z,21.30
2022-08-11T20:36:26.249Z,21.10
2022-08-11T20:39:13.948Z,21.00
2022-08-11T20:42:00.554Z,20.90
2022-08-11T20:44:48.203Z,20.80
2022-08-11T20:47:59.674Z,20.80
2022-08-11T20:50:42.429Z,20.80
2022-08-11T20:53:35.664Z,20.70
2022-08-11T20:56:28.641Z,20.70
2022-08-11T20:59:18.861Z,20.60
2022-08-11T21:02:09.733Z,20.50
2022-08-11T21:04:56.587Z,20.40
2022-08-11T21:07:50.313Z,20.30
2022-08-11T21:10:51.243Z,20.10
2022-08-11T21:13:51.588Z,20.10
2022-08-11T21:16:47.384Z,20.10
2022-08-11T21:20:07.907Z,19.90
2022-08-11T21:23:08.148Z,19.80
2022-08-11T21:26:02.501Z,19.80
2022-08-11T21:28:48.688Z,19.80
2022-08-11T21:31:36.470Z,19.70
2022-08-11T21:34:23.020Z,19.60
2022-08-11T21:37:10.383Z,19.50
2022-08-11T21:39:56.880Z,19.40
2022-08-11T21:42:45.059Z,19.30
2022-08-11T21:45:32.918Z,19.30
2022-08-11T21:48:19.774Z,19.40
2022-08-11T21:51:05.017Z,19.40
2022-08-11T21:53:52.352Z,19.20
2022-08-11T21:56:39.835Z,19.10
2022-08-11T22:02:34.777Z,19.00
2022-08-11T22:05:22.106Z,19.00
2022-08-11T22:08:11.867Z,18.90
2022-08-11T22:10:58.376Z,18.70
2022-08-11T22:14:05.925Z,18.60
2022-08-11T22:16:49.468Z,18.70
2022-08-11T22:19:36.458Z,18.80
2022-08-11T22:22:26.198Z,18.90
2022-08-11T22:25:16.642Z,18.80
2022-08-11T22:28:04.372Z,18.60
2022-08-11T22:30:49.708Z,18.40
2022-08-11T22:33:36.210Z,18.50
2022-08-11T22:36:26.593Z,18.60
2022-08-11T22:39:14.230Z,18.50
2022-08-11T22:41:59.930Z,18.30
2022-08-11T22:44:45.609Z,18.20
2022-08-11T22:47:38.403Z,18.00
2022-08-11T22:50:27.238Z,18.00
2022-08-11T22:53:14.863Z,17.90
2022-08-11T22:56:00.480Z,17.80
2022-08-11T22:58:46.175Z,17.80
2022-08-11T23:01:35.904Z,17.80
2022-08-11T23:04:22.166Z,17.70
2022-08-11T23:07:08.237Z,17.60
2022-08-11T23:09:54.272Z,17.50
2022-08-11T23:12:40.178Z,17.50
2022-08-11T23:15:27.817Z,17.50
2022-08-11T23:18:13.926Z,17.30
2022-08-11T23:21:00.109Z,17.30
2022-08-11T23:23:47.419Z,17.20
2022-08-11T23:26:35.359Z,17.30
2022-08-11T23:29:22.098Z,17.30
2022-08-11T23:32:10.188Z,17.30
2022-08-11T23:35:37.343Z,17.10
2022-08-11T23:38:04.969Z,17.00
2022-08-11T23:40:50.231Z,16.90
2022-08-11T23:43:39.996Z,16.80
2022-08-11T23:46:25.984Z,16.80
2022-08-11T23:49:22.732Z,16.80
2022-08-11T23:52:09.345Z,16.70
2022-08-11T23:54:54.763Z,16.80
2022-08-11T23:57:47.934Z,16.80
